Station: Port Lincoln Airport

  Atmospheric Gas Attenuation - ITU Rec 676-11   --------------- db/100km ---------------
Date Time Temp RH % AH g/m3 Dew Point Wind Direction Speed kph Gust kph Barometer mB Rainfall Since 9am 24GHz 47GHz 76GHz 122GHz 134GHz 241GHz
17 02:40 8.1 98 8.16 7.8 7 9 1020.2 0.2 18.9 27.1 41.2 108.1 100.3 344.3
17 02:30 8.1 98 8.16 7.8 9 11 1020.3 0.2 18.9 27.1 41.2 108.1 100.3 344.4
17 02:20 8.1 98 8.16 7.8 11 13 1020.3 0.2 18.9 27.1 41.2 108.1 100.3 344.4
17 02:10 7.7 99 8.03 7.6 9 11 1020.4 0.2 18.7 27.0 40.9 107.2 99.0 339.7
17 02:00 5.7 97 6.91 5.3 0 0 1020.4 0.2 16.3 25.7 37.1 97.0 85.7 292.9
17 01:50 5.5 97 6.82 5.1 0 0 1020.4 0.2 16.1 25.6 36.8 96.3 84.7 289.2
17 01:40 5.7 97 6.91 5.3 0 0 1020.5 0.2 16.3 25.7 37.1 97.1 85.7 292.9
17 01:30 5.5 96 6.75 4.9 0 0 1020.6 0.2 16.0 25.5 36.5 95.5 83.7 285.9
17 01:20 6.2 97 7.14 5.8 0 0 1020.7 0.2 16.8 26.0 37.8 99.0 88.4 302.2
17 01:10 6.6 97 7.33 6.2 0 0 1020.8 0.2 17.2 26.2 38.5 100.7 90.6 310.0
17 01:00 6.8 96 7.35 6.2 0 6 1020.9 0.2 17.2 26.2 38.5 100.7 90.6 310.2
17 00:50 8.3 98 8.26 8 6 6 1021 0.2 19.1 27.3 41.6 109.0 101.5 348.6
17 00:40 8 98 8.11 7.7 6 7 1021 0.2 18.8 27.1 41.1 107.7 99.8 342.5
17 00:30 8.2 98 8.21 7.9 7 7 1021 0.2 19.0 27.2 41.4 108.6 101.0 346.6
17 00:20 8.4 97 8.23 8 7 7 1021.1 0.2 19.0 27.2 41.4 108.5 101.0 346.7
17 00:10 9 98 8.64 8.7 7 9 1021.3 0.2 19.9 27.7 42.9 112.4 106.0 364.3
17 00:00 8.9 98 8.59 8.6 9 11 1021.4 0.2 19.8 27.7 42.7 112.0 105.4 362.3
16 23:50 8.9 98 8.59 8.6 11 11 1021.4 0.2 19.8 27.7 42.7 112.0 105.4 362.3
16 23:40 9.1 98 8.7 8.8 9 9 1021.5 0.2 20.0 27.8 43.1 113.0 106.7 366.9
16 23:30 8.4 98 8.32 8.1 9 9 1021.5 0.2 19.2 27.4 41.8 109.6 102.3 351.3
16 23:20 8.7 98 8.48 8.4 9 9 1021.6 0.2 19.6 27.6 42.3 111.1 104.2 357.9
16 23:10 8.8 98 8.53 8.5 7 9 1021.6 0.2 19.7 27.6 42.5 111.5 104.7 359.9
16 23:00 8.6 98 8.42 8.3 6 7 1021.8 0.2 19.4 27.5 42.1 110.5 103.5 355.4
16 22:50 8.8 98 8.53 8.5 7 7 1021.8 0.2 19.7 27.6 42.5 111.5 104.8 359.9
16 22:40 9 98 8.64 8.7 6 6 1021.8 0.2 19.9 27.7 42.9 112.5 106.0 364.5
16 22:30 9.2 98 8.75 8.9 7 9 1021.8 0.2 20.1 27.9 43.2 113.5 107.3 369.0
16 22:20 9.1 98 8.7 8.8 6 7 1021.9 0.2 20.0 27.8 43.1 113.0 106.8 367.0
16 22:10 9.2 98 8.75 8.9 7 7 1022 0.2 20.1 27.9 43.3 113.5 107.3 369.1
16 22:00 9 98 8.64 8.7 9 9 1022.1 0.2 19.9 27.8 42.9 112.5 106.1 364.6
16 21:50 9.2 98 8.75 8.9 7 7 1022.2 0.2 20.1 27.9 43.3 113.5 107.4 369.1
16 21:40 9.1 98 8.7 8.8 7 7 1022.2 0.2 20.0 27.8 43.1 113.1 106.8 367.1
16 21:30 8.8 98 8.53 8.5 9 11 1022.2 0.2 19.7 27.6 42.5 111.5 104.8 360.1
16 21:20 8.1 98 8.16 7.8 9 11 1022.3 0.2 18.9 27.2 41.3 108.3 100.5 344.9
16 21:10 7.4 97 7.72 7 7 7 1022.5 0.2 18.0 26.7 39.8 104.2 95.2 326.3
16 21:00 8 97 8.02 7.6 7 9 1022.5 0.2 18.6 27.0 40.8 106.9 98.7 338.5
16 20:50 7.6 97 7.82 7.2 9 9 1022.5 0.2 18.2 26.8 40.1 105.1 96.4 330.4
16 20:40 7.7 96 7.79 7.1 6 7 1022.6 0.2 18.1 26.7 39.9 104.6 95.8 328.5
16 20:30 9.1 97 8.61 8.6 7 9 1022.6 0.2 19.8 27.7 42.7 112.1 105.5 362.8
16 20:20 8.5 97 8.28 8.1 9 9 1022.7 0.2 19.2 27.3 41.6 109.2 101.7 349.2
16 20:10 8.6 97 8.34 8.2 9 11 1022.7 0.2 19.3 27.4 41.8 109.7 102.4 351.7
16 20:00 8.2 96 8.04 7.6 7 9 1022.6 0.2 18.6 27.0 40.8 106.8 98.7 338.6
16 19:50 9.2 97 8.66 8.7 7 9 1022.6 0 19.9 27.8 42.9 112.5 106.1 364.8
16 19:40 8.8 95 8.27 8 6 7 1022.8 0 19.1 27.2 41.4 108.6 101.2 347.4
16 19:30 9.8 97 9 9.3 7 9 1022.7 0 20.6 28.2 44.0 115.6 110.1 378.8
16 19:20 9.6 96 8.8 9 7 7 1022.7 0 20.2 27.9 43.3 113.6 107.6 369.8
16 19:10 10.1 97 9.17 9.6 7 9 1022.7 0 21.0 28.4 44.6 117.1 112.1 385.8
16 19:00 8.7 94 8.13 7.8 7 9 1022.7 0 18.8 27.0 40.9 107.2 99.3 340.9
16 18:50 9.6 94 8.61 8.7 6 7 1022.5 0 19.8 27.5 42.5 111.4 104.9 360.4
16 18:40 10.3 95 9.1 9.5 7 7 1022.3 0 20.8 28.2 44.2 115.9 110.8 381.2
16 18:30 9.4 92 8.32 8.2 6 9 1022.3 0 19.2 27.1 41.3 108.3 101.0 347.0
16 18:20 11 93 9.31 9.9 7 9 1022.3 0 21.2 28.3 44.7 117.3 112.7 388.2
16 18:10 11.3 93 9.49 10.2 9 11 1022.2 0 21.6 28.5 45.3 118.9 114.8 395.6
16 18:00 11.6 92 9.56 10.3 13 17 1022.2 0 21.7 28.5 45.4 119.2 115.4 397.5
16 17:50 11.9 92 9.74 10.6 11 13 1022.3 0 22.1 28.7 46.0 120.9 117.5 404.9
16 17:40 12.3 92 9.99 11 19 20 1022.1 0 22.6 29.0 46.8 123.1 120.4 415.2
16 17:30 12.2 91 9.82 10.8 19 24 1021.8 0 22.3 28.8 46.2 121.3 118.1 407.1
16 17:20 12.7 91 10.13 11.3 19 20 1021.9 0 22.9 29.1 47.2 124.1 121.7 419.9
16 17:10 12.7 90 10.02 11.1 20 24 1021.7 0 22.7 28.9 46.7 122.8 120.2 414.4
16 17:00 12.9 89 10.03 11.1 17 20 1022.4 0 22.7 28.9 46.7 122.7 120.1 414.0
16 16:50 13.3 88 10.17 11.4 17 17 1022.6 0 23.0 29.0 47.0 123.6 121.4 418.9
16 16:40 13.5 88 10.29 11.6 15 17 1022.7 0 23.2 29.2 47.4 124.7 122.8 423.7
16 16:30 13.7 87 10.3 11.6 17 20 1022.8 0 23.2 29.1 47.4 124.5 122.6 423.2
16 16:20 13.6 87 10.24 11.5 13 17 1023 0 23.1 29.1 47.2 124.0 122.0 420.8
16 16:10 14.1 86 10.44 11.8 15 17 1023.2 0 23.5 29.3 47.8 125.5 124.0 428.0
16 16:00 14 86 10.37 11.7 15 19 1023.1 0 23.4 29.2 47.5 124.9 123.2 425.1
16 15:50 14.1 85 10.32 11.6 15 17 1023.1 0 23.2 29.1 47.2 124.1 122.3 422.1
16 15:40 14.2 85 10.38 11.7 13 15 1023.1 0 23.4 29.1 47.4 124.7 123.0 424.5
16 15:30 14.4 86 10.63 12.1 17 20 1023 0 23.9 29.5 48.4 127.2 126.2 435.7
16 15:20 14.4 86 10.63 12.1 13 15 1023 0 23.9 29.5 48.4 127.2 126.2 435.7
16 15:10 14.3 86 10.57 12 13 17 1023 0 23.8 29.4 48.2 126.7 125.5 433.3
16 15:00 14.5 86 10.7 12.2 17 20 1023.1 0 24.0 29.6 48.6 127.9 127.0 438.6
16 14:50 14.5 85 10.57 12 17 19 1023.1 0 23.8 29.4 48.1 126.4 125.2 432.2
16 14:40 14.5 83 10.32 11.6 19 22 1023 0 23.2 28.9 47.0 123.5 121.7 419.9
16 14:30 15 83 10.64 12.1 19 26 1022.8 0 23.9 29.3 48.0 126.3 125.3 432.7
16 14:20 15.2 84 10.9 12.5 19 22 1022.8 0 24.4 29.7 49.0 129.0 128.7 444.4
16 14:10 15.3 86 11.23 13 19 20 1022.9 0 25.1 30.2 50.4 132.6 133.2 460.2
16 14:00 15 84 10.77 12.3 19 24 1023.2 0 24.2 29.5 48.6 127.8 127.2 439.3
16 13:50 15.1 82 10.58 12.1 19 20 1023.2 0 23.7 29.2 47.7 125.5 124.4 429.4
16 13:40 15.2 84 10.9 12.5 17 20 1023.3 0 24.4 29.7 49.1 129.0 128.7 444.6
16 13:30 15.8 85 11.44 13.3 19 24 1023.4 0 25.5 30.4 51.0 134.2 135.3 467.8
16 13:20 15.3 84 10.97 12.6 19 20 1023.3 0 24.6 29.8 49.3 129.7 129.5 447.4
16 13:10 15.1 86 11.09 12.8 22 24 1023.4 0 24.8 30.1 49.9 131.4 131.6 454.6
16 13:00 15.3 84 10.97 12.6 20 26 1023.3 0 24.6 29.8 49.3 129.7 129.5 447.4
16 12:50 15.4 83 10.9 12.5 24 26 1023.4 0 24.4 29.6 48.9 128.7 128.4 443.4
16 12:40 15.7 85 11.37 13.2 20 20 1023.5 0 25.4 30.3 50.8 133.6 134.5 465.0
16 12:30 15.4 77 10.12 11.4 17 20 1023.7 0 22.7 28.3 45.6 119.9 117.6 405.6
16 12:20 15.4 76 9.99 11.2 17 19 1023.9 0 22.5 28.1 45.1 118.5 115.8 399.5
16 12:10 15.4 75 9.85 11 17 19 1024.2 0 22.2 27.9 44.5 117.0 113.9 392.9
16 12:00 16.1 79 10.83 12.5 15 19 1024.3 0 24.2 29.3 48.2 126.9 126.3 436.4
16 11:50 15.7 75 10.03 11.3 15 17 1024.3 0 22.5 28.1 45.1 118.5 115.9 400.0
16 11:40 15.3 74 9.66 10.7 13 17 1024.5 0 21.8 27.6 43.8 115.1 111.5 384.4
16 11:30 15.6 74 9.84 11 15 19 1024.8 0 22.1 27.8 44.4 116.6 113.5 391.6
16 11:20 15.3 72 9.4 10.3 15 17 1025 0 21.2 27.2 42.8 112.3 108.1 372.3
16 11:10 15.4 74 9.72 10.8 17 17 1025 0 21.9 27.7 44.0 115.6 112.2 387.0
16 11:00 15.2 73 9.48 10.4 13 17 1025.1 0 21.4 27.4 43.2 113.3 109.3 376.6
16 10:50 14.9 73 9.3 10.1 15 17 1025.2 0 21.0 27.2 42.6 111.8 107.3 369.6
16 10:40 14.9 76 9.69 10.7 6 7 1025.1 0 21.8 27.8 44.2 116.1 112.6 388.0
16 10:30 14.1 78 9.47 10.3 2 7 1025.2 0 21.4 27.7 43.7 114.8 110.7 381.5
16 10:20 14.1 82 9.95 11.1 0 0 1025.3 0 22.4 28.5 45.8 120.2 117.3 404.7
16 10:10 13.5 85 9.94 11 0 0 1025.2 0 22.5 28.7 46.1 121.0 118.1 407.3

Last Refresh: 17-Jul-2020 02:57:54

Most of the information presented on this site is sourced from the Bureau of Meteorology.  Copyright in all material sourced from the Bureau of Meteorology resides with the Commonwealth of Australia.